sensor_id;sensor_type;location;lat;lon;timestamp;P1;durP1;ratioP1;P2;durP2;ratioP2
7703;SDS011;3894;49.700;10.770;2023-10-19T00:02:04;18.67;;;8.98;;
7703;SDS011;3894;49.700;10.770;2023-10-19T00:04:30;21.02;;;9.75;;
7703;SDS011;3894;49.700;10.770;2023-10-19T00:06:57;22.40;;;9.80;;
7703;SDS011;3894;49.700;10.770;2023-10-19T00:09:23;23.52;;;9.75;;
7703;SDS011;3894;49.700;10.770;2023-10-19T00:11:50;22.95;;;10.10;;
7703;SDS011;3894;49.700;10.770;2023-10-19T00:14:16;25.98;;;10.82;;
7703;SDS011;3894;49.700;10.770;2023-10-19T00:16:43;20.23;;;9.77;;
7703;SDS011;3894;49.700;10.770;2023-10-19T00:19:15;21.67;;;9.55;;
7703;SDS011;3894;49.700;10.770;2023-10-19T00:21:45;22.30;;;10.98;;
7703;SDS011;3894;49.700;10.770;2023-10-19T00:24:20;19.15;;;8.90;;
7703;SDS011;3894;49.700;10.770;2023-10-19T00:26:48;20.52;;;9.25;;
7703;SDS011;3894;49.700;10.770;2023-10-19T00:29:14;20.73;;;9.00;;
7703;SDS011;3894;49.700;10.770;2023-10-19T00:31:55;19.20;;;8.82;;
7703;SDS011;3894;49.700;10.770;2023-10-19T00:34:22;21.70;;;9.23;;
7703;SDS011;3894;49.700;10.770;2023-10-19T00:36:50;23.02;;;9.70;;
7703;SDS011;3894;49.700;10.770;2023-10-19T00:39:16;19.98;;;9.55;;
7703;SDS011;3894;49.700;10.770;2023-10-19T00:41:52;22.52;;;9.18;;
7703;SDS011;3894;49.700;10.770;2023-10-19T00:44:22;23.65;;;10.30;;
7703;SDS011;3894;49.700;10.770;2023-10-19T00:46:50;22.00;;;9.98;;
7703;SDS011;3894;49.700;10.770;2023-10-19T00:49:29;22.45;;;10.35;;
7703;SDS011;3894;49.700;10.770;2023-10-19T00:51:56;18.92;;;9.68;;
7703;SDS011;3894;49.700;10.770;2023-10-19T00:54:31;20.35;;;9.88;;
7703;SDS011;3894;49.700;10.770;2023-10-19T00:57:00;23.73;;;10.52;;
7703;SDS011;3894;49.700;10.770;2023-10-19T00:59:33;22.55;;;9.98;;
7703;SDS011;3894;49.700;10.770;2023-10-19T01:02:12;22.20;;;9.77;;
7703;SDS011;3894;49.700;10.770;2023-10-19T01:04:44;23.15;;;10.48;;
7703;SDS011;3894;49.700;10.770;2023-10-19T01:07:15;23.10;;;10.15;;
7703;SDS011;3894;49.700;10.770;2023-10-19T01:09:46;25.58;;;11.05;;
7703;SDS011;3894;49.700;10.770;2023-10-19T01:12:12;22.75;;;10.57;;
7703;SDS011;3894;49.700;10.770;2023-10-19T01:15:09;21.95;;;10.07;;
7703;SDS011;3894;49.700;10.770;2023-10-19T01:17:39;23.70;;;10.73;;
7703;SDS011;3894;49.700;10.770;2023-10-19T01:20:09;19.92;;;10.55;;
7703;SDS011;3894;49.700;10.770;2023-10-19T01:22:49;24.45;;;11.23;;
7703;SDS011;3894;49.700;10.770;2023-10-19T01:28:07;23.02;;;11.07;;
7703;SDS011;3894;49.700;10.770;2023-10-19T01:30:34;25.42;;;11.88;;
7703;SDS011;3894;49.700;10.770;2023-10-19T01:33:01;25.20;;;10.90;;
7703;SDS011;3894;49.700;10.770;2023-10-19T01:35:28;23.38;;;10.50;;
7703;SDS011;3894;49.700;10.770;2023-10-19T01:38:14;19.42;;;9.50;;
7703;SDS011;3894;49.700;10.770;2023-10-19T01:40:40;23.13;;;10.45;;
7703;SDS011;3894;49.700;10.770;2023-10-19T01:43:11;21.88;;;10.88;;
7703;SDS011;3894;49.700;10.770;2023-10-19T01:45:46;24.75;;;10.40;;
7703;SDS011;3894;49.700;10.770;2023-10-19T01:48:12;23.85;;;11.98;;
7703;SDS011;3894;49.700;10.770;2023-10-19T01:50:39;24.63;;;10.52;;
7703;SDS011;3894;49.700;10.770;2023-10-19T01:53:05;21.42;;;9.93;;
7703;SDS011;3894;49.700;10.770;2023-10-19T01:55:40;23.27;;;10.95;;
7703;SDS011;3894;49.700;10.770;2023-10-19T01:58:07;22.08;;;10.77;;
7703;SDS011;3894;49.700;10.770;2023-10-19T02:00:33;25.17;;;11.43;;
7703;SDS011;3894;49.700;10.770;2023-10-19T02:03:02;24.73;;;11.07;;
7703;SDS011;3894;49.700;10.770;2023-10-19T02:05:34;26.13;;;11.23;;
7703;SDS011;3894;49.700;10.770;2023-10-19T02:08:07;30.67;;;13.07;;
7703;SDS011;3894;49.700;10.770;2023-10-19T02:10:33;24.00;;;10.98;;
7703;SDS011;3894;49.700;10.770;2023-10-19T02:13:00;27.05;;;11.50;;
7703;SDS011;3894;49.700;10.770;2023-10-19T02:15:31;28.08;;;11.85;;
7703;SDS011;3894;49.700;10.770;2023-10-19T02:17:59;24.48;;;10.98;;
7703;SDS011;3894;49.700;10.770;2023-10-19T02:20:26;25.42;;;11.98;;
7703;SDS011;3894;49.700;10.770;2023-10-19T02:22:53;27.48;;;11.63;;
7703;SDS011;3894;49.700;10.770;2023-10-19T02:25:22;24.25;;;11.77;;
7703;SDS011;3894;49.700;10.770;2023-10-19T02:30:16;27.92;;;12.55;;
7703;SDS011;3894;49.700;10.770;2023-10-19T02:32:42;26.90;;;11.30;;
7703;SDS011;3894;49.700;10.770;2023-10-19T02:35:08;24.30;;;10.82;;
7703;SDS011;3894;49.700;10.770;2023-10-19T02:37:34;26.23;;;11.30;;
7703;SDS011;3894;49.700;10.770;2023-10-19T02:40:00;25.90;;;12.35;;
7703;SDS011;3894;49.700;10.770;2023-10-19T02:42:25;25.63;;;11.73;;
7703;SDS011;3894;49.700;10.770;2023-10-19T02:44:51;24.10;;;11.50;;
7703;SDS011;3894;49.700;10.770;2023-10-19T02:47:17;27.88;;;12.15;;
7703;SDS011;3894;49.700;10.770;2023-10-19T02:49:42;28.92;;;12.45;;
7703;SDS011;3894;49.700;10.770;2023-10-19T02:52:15;27.23;;;11.85;;
7703;SDS011;3894;49.700;10.770;2023-10-19T02:54:41;28.80;;;11.40;;
7703;SDS011;3894;49.700;10.770;2023-10-19T02:57:07;27.70;;;11.93;;
7703;SDS011;3894;49.700;10.770;2023-10-19T02:59:34;25.77;;;11.55;;
7703;SDS011;3894;49.700;10.770;2023-10-19T03:02:00;27.23;;;11.43;;
7703;SDS011;3894;49.700;10.770;2023-10-19T03:04:32;24.90;;;11.75;;
7703;SDS011;3894;49.700;10.770;2023-10-19T03:07:00;26.70;;;11.07;;
7703;SDS011;3894;49.700;10.770;2023-10-19T03:09:27;23.27;;;11.32;;
7703;SDS011;3894;49.700;10.770;2023-10-19T03:11:53;30.83;;;12.80;;
7703;SDS011;3894;49.700;10.770;2023-10-19T03:14:24;27.88;;;12.90;;
7703;SDS011;3894;49.700;10.770;2023-10-19T03:16:50;27.70;;;12.63;;
7703;SDS011;3894;49.700;10.770;2023-10-19T03:19:16;25.10;;;11.05;;
7703;SDS011;3894;49.700;10.770;2023-10-19T03:21:42;26.35;;;12.30;;
7703;SDS011;3894;49.700;10.770;2023-10-19T03:24:11;25.17;;;12.38;;
7703;SDS011;3894;49.700;10.770;2023-10-19T03:26:38;26.75;;;12.80;;
7703;SDS011;3894;49.700;10.770;2023-10-19T03:29:08;27.23;;;12.30;;
7703;SDS011;3894;49.700;10.770;2023-10-19T03:31:37;27.45;;;12.25;;
7703;SDS011;3894;49.700;10.770;2023-10-19T03:34:12;30.73;;;12.60;;
7703;SDS011;3894;49.700;10.770;2023-10-19T03:36:39;29.60;;;13.80;;
7703;SDS011;3894;49.700;10.770;2023-10-19T03:39:04;28.95;;;12.63;;
7703;SDS011;3894;49.700;10.770;2023-10-19T03:41:38;24.80;;;11.70;;
7703;SDS011;3894;49.700;10.770;2023-10-19T03:44:07;28.67;;;14.77;;
7703;SDS011;3894;49.700;10.770;2023-10-19T03:46:38;25.27;;;11.95;;
7703;SDS011;3894;49.700;10.770;2023-10-19T03:49:17;29.15;;;13.70;;
7703;SDS011;3894;49.700;10.770;2023-10-19T03:51:46;26.80;;;13.55;;
7703;SDS011;3894;49.700;10.770;2023-10-19T03:54:25;29.77;;;13.82;;
7703;SDS011;3894;49.700;10.770;2023-10-19T03:56:52;28.02;;;12.70;;
7703;SDS011;3894;49.700;10.770;2023-10-19T03:59:19;28.70;;;13.07;;
7703;SDS011;3894;49.700;10.770;2023-10-19T04:01:48;26.42;;;12.05;;
7703;SDS011;3894;49.700;10.770;2023-10-19T04:04:14;29.80;;;12.73;;
7703;SDS011;3894;49.700;10.770;2023-10-19T04:06:41;24.15;;;12.55;;
7703;SDS011;3894;49.700;10.770;2023-10-19T04:09:12;26.75;;;12.88;;
7703;SDS011;3894;49.700;10.770;2023-10-19T04:11:41;29.48;;;13.07;;
7703;SDS011;3894;49.700;10.770;2023-10-19T04:14:16;29.50;;;14.18;;
7703;SDS011;3894;49.700;10.770;2023-10-19T04:16:43;27.15;;;11.77;;
7703;SDS011;3894;49.700;10.770;2023-10-19T04:19:12;25.25;;;12.45;;
7703;SDS011;3894;49.700;10.770;2023-10-19T04:21:39;28.55;;;12.77;;
7703;SDS011;3894;49.700;10.770;2023-10-19T04:24:09;28.42;;;12.93;;
7703;SDS011;3894;49.700;10.770;2023-10-19T04:26:35;30.15;;;14.00;;
7703;SDS011;3894;49.700;10.770;2023-10-19T04:29:04;28.35;;;13.05;;
7703;SDS011;3894;49.700;10.770;2023-10-19T04:31:38;31.10;;;12.88;;
7703;SDS011;3894;49.700;10.770;2023-10-19T04:34:15;26.83;;;13.65;;
7703;SDS011;3894;49.700;10.770;2023-10-19T04:36:45;28.73;;;12.57;;
7703;SDS011;3894;49.700;10.770;2023-10-19T04:39:11;28.50;;;12.30;;
7703;SDS011;3894;49.700;10.770;2023-10-19T04:41:39;25.63;;;13.27;;
7703;SDS011;3894;49.700;10.770;2023-10-19T04:44:05;27.60;;;12.50;;
7703;SDS011;3894;49.700;10.770;2023-10-19T04:48:59;28.63;;;12.68;;
7703;SDS011;3894;49.700;10.770;2023-10-19T04:51:25;28.77;;;12.65;;
7703;SDS011;3894;49.700;10.770;2023-10-19T04:53:50;29.42;;;13.13;;
7703;SDS011;3894;49.700;10.770;2023-10-19T04:56:16;31.35;;;14.10;;
7703;SDS011;3894;49.700;10.770;2023-10-19T04:58:41;27.42;;;12.68;;
7703;SDS011;3894;49.700;10.770;2023-10-19T05:01:07;28.33;;;12.63;;
7703;SDS011;3894;49.700;10.770;2023-10-19T05:03:33;27.70;;;12.43;;
7703;SDS011;3894;49.700;10.770;2023-10-19T05:05:59;32.30;;;13.60;;
7703;SDS011;3894;49.700;10.770;2023-10-19T05:08:26;30.58;;;13.07;;
7703;SDS011;3894;49.700;10.770;2023-10-19T05:10:52;30.92;;;13.70;;
7703;SDS011;3894;49.700;10.770;2023-10-19T05:13:20;29.65;;;14.00;;
7703;SDS011;3894;49.700;10.770;2023-10-19T05:15:46;29.27;;;13.32;;
7703;SDS011;3894;49.700;10.770;2023-10-19T05:18:12;27.98;;;13.98;;
7703;SDS011;3894;49.700;10.770;2023-10-19T05:20:37;27.42;;;14.00;;
7703;SDS011;3894;49.700;10.770;2023-10-19T05:27:57;28.77;;;12.88;;
7703;SDS011;3894;49.700;10.770;2023-10-19T05:30:24;31.33;;;13.02;;
7703;SDS011;3894;49.700;10.770;2023-10-19T05:32:50;32.28;;;13.20;;
7703;SDS011;3894;49.700;10.770;2023-10-19T05:35:16;29.60;;;12.48;;
7703;SDS011;3894;49.700;10.770;2023-10-19T05:37:48;30.95;;;13.57;;
7703;SDS011;3894;49.700;10.770;2023-10-19T05:40:14;29.80;;;12.75;;
7703;SDS011;3894;49.700;10.770;2023-10-19T05:42:40;29.88;;;13.55;;
7703;SDS011;3894;49.700;10.770;2023-10-19T05:45:06;29.40;;;15.20;;
7703;SDS011;3894;49.700;10.770;2023-10-19T05:47:32;27.52;;;13.35;;
7703;SDS011;3894;49.700;10.770;2023-10-19T05:49:57;28.70;;;14.07;;
7703;SDS011;3894;49.700;10.770;2023-10-19T05:52:23;31.52;;;13.70;;
7703;SDS011;3894;49.700;10.770;2023-10-19T05:54:49;30.30;;;13.88;;
7703;SDS011;3894;49.700;10.770;2023-10-19T05:57:14;30.00;;;13.38;;
7703;SDS011;3894;49.700;10.770;2023-10-19T05:59:40;28.38;;;14.15;;
7703;SDS011;3894;49.700;10.770;2023-10-19T06:02:06;32.15;;;14.07;;
7703;SDS011;3894;49.700;10.770;2023-10-19T06:04:32;29.13;;;13.85;;
7703;SDS011;3894;49.700;10.770;2023-10-19T06:06:58;31.55;;;14.98;;
7703;SDS011;3894;49.700;10.770;2023-10-19T06:09:24;30.85;;;14.07;;
7703;SDS011;3894;49.700;10.770;2023-10-19T06:11:54;29.50;;;13.40;;
7703;SDS011;3894;49.700;10.770;2023-10-19T06:14:20;29.80;;;14.23;;
7703;SDS011;3894;49.700;10.770;2023-10-19T06:16:46;31.50;;;13.15;;
7703;SDS011;3894;49.700;10.770;2023-10-19T06:19:11;29.40;;;14.75;;
7703;SDS011;3894;49.700;10.770;2023-10-19T06:21:37;31.05;;;14.85;;
7703;SDS011;3894;49.700;10.770;2023-10-19T06:24:03;28.13;;;13.90;;
7703;SDS011;3894;49.700;10.770;2023-10-19T06:26:28;30.90;;;14.10;;
7703;SDS011;3894;49.700;10.770;2023-10-19T06:28:54;33.20;;;15.32;;
7703;SDS011;3894;49.700;10.770;2023-10-19T06:31:26;29.23;;;14.30;;
7703;SDS011;3894;49.700;10.770;2023-10-19T06:33:53;33.83;;;13.73;;
7703;SDS011;3894;49.700;10.770;2023-10-19T06:36:18;28.98;;;15.25;;
7703;SDS011;3894;49.700;10.770;2023-10-19T06:38:44;32.03;;;13.75;;
7703;SDS011;3894;49.700;10.770;2023-10-19T06:41:10;30.85;;;14.90;;
7703;SDS011;3894;49.700;10.770;2023-10-19T06:43:40;31.05;;;14.48;;
7703;SDS011;3894;49.700;10.770;2023-10-19T06:46:06;32.83;;;14.80;;
7703;SDS011;3894;49.700;10.770;2023-10-19T06:48:32;31.48;;;14.43;;
7703;SDS011;3894;49.700;10.770;2023-10-19T06:50:58;35.05;;;14.98;;
7703;SDS011;3894;49.700;10.770;2023-10-19T06:53:25;30.30;;;13.13;;
7703;SDS011;3894;49.700;10.770;2023-10-19T06:55:50;27.67;;;14.13;;
7703;SDS011;3894;49.700;10.770;2023-10-19T06:58:16;32.90;;;14.85;;
7703;SDS011;3894;49.700;10.770;2023-10-19T07:00:45;27.05;;;14.35;;
7703;SDS011;3894;49.700;10.770;2023-10-19T07:03:20;30.95;;;14.25;;
7703;SDS011;3894;49.700;10.770;2023-10-19T07:05:46;31.92;;;14.43;;
7703;SDS011;3894;49.700;10.770;2023-10-19T07:08:12;32.72;;;14.93;;
7703;SDS011;3894;49.700;10.770;2023-10-19T07:10:37;28.05;;;14.15;;
7703;SDS011;3894;49.700;10.770;2023-10-19T07:13:03;33.38;;;16.45;;
7703;SDS011;3894;49.700;10.770;2023-10-19T07:15:28;28.13;;;14.05;;
7703;SDS011;3894;49.700;10.770;2023-10-19T07:17:55;30.50;;;13.75;;
7703;SDS011;3894;49.700;10.770;2023-10-19T07:20:21;32.05;;;14.95;;
7703;SDS011;3894;49.700;10.770;2023-10-19T07:22:53;30.02;;;14.85;;
7703;SDS011;3894;49.700;10.770;2023-10-19T07:25:20;30.45;;;13.43;;
7703;SDS011;3894;49.700;10.770;2023-10-19T07:27:49;28.80;;;14.43;;
7703;SDS011;3894;49.700;10.770;2023-10-19T07:30:19;30.77;;;14.85;;
7703;SDS011;3894;49.700;10.770;2023-10-19T07:32:51;28.40;;;13.05;;
7703;SDS011;3894;49.700;10.770;2023-10-19T07:35:23;26.85;;;12.98;;
7703;SDS011;3894;49.700;10.770;2023-10-19T07:37:51;31.48;;;15.15;;
7703;SDS011;3894;49.700;10.770;2023-10-19T07:40:16;30.80;;;14.63;;
7703;SDS011;3894;49.700;10.770;2023-10-19T07:42:46;27.80;;;14.10;;
7703;SDS011;3894;49.700;10.770;2023-10-19T07:45:14;45.60;;;19.40;;
7703;SDS011;3894;49.700;10.770;2023-10-19T07:47:40;31.40;;;14.88;;
7703;SDS011;3894;49.700;10.770;2023-10-19T07:50:10;28.27;;;13.68;;
7703;SDS011;3894;49.700;10.770;2023-10-19T07:52:51;29.90;;;13.88;;
7703;SDS011;3894;49.700;10.770;2023-10-19T07:55:19;27.88;;;13.82;;
7703;SDS011;3894;49.700;10.770;2023-10-19T07:57:48;25.95;;;12.73;;
7703;SDS011;3894;49.700;10.770;2023-10-19T08:00:15;25.63;;;12.27;;
7703;SDS011;3894;49.700;10.770;2023-10-19T08:02:42;28.15;;;12.50;;
7703;SDS011;3894;49.700;10.770;2023-10-19T08:05:11;25.88;;;13.10;;
7703;SDS011;3894;49.700;10.770;2023-10-19T08:07:38;26.15;;;11.57;;
7703;SDS011;3894;49.700;10.770;2023-10-19T08:10:05;26.63;;;13.38;;
7703;SDS011;3894;49.700;10.770;2023-10-19T08:12:34;26.30;;;13.15;;
7703;SDS011;3894;49.700;10.770;2023-10-19T08:15:00;27.42;;;12.90;;
7703;SDS011;3894;49.700;10.770;2023-10-19T08:17:27;23.08;;;12.43;;
7703;SDS011;3894;49.700;10.770;2023-10-19T08:19:52;26.52;;;13.48;;
7703;SDS011;3894;49.700;10.770;2023-10-19T08:22:18;27.27;;;13.50;;
7703;SDS011;3894;49.700;10.770;2023-10-19T08:24:44;26.52;;;14.70;;
7703;SDS011;3894;49.700;10.770;2023-10-19T08:27:10;27.25;;;13.60;;
7703;SDS011;3894;49.700;10.770;2023-10-19T08:29:37;26.52;;;13.75;;
7703;SDS011;3894;49.700;10.770;2023-10-19T08:32:03;26.83;;;13.88;;
7703;SDS011;3894;49.700;10.770;2023-10-19T08:34:29;28.73;;;14.85;;
7703;SDS011;3894;49.700;10.770;2023-10-19T08:37:00;24.67;;;12.30;;
7703;SDS011;3894;49.700;10.770;2023-10-19T08:39:27;28.35;;;14.23;;
7703;SDS011;3894;49.700;10.770;2023-10-19T08:41:53;25.20;;;13.02;;
7703;SDS011;3894;49.700;10.770;2023-10-19T08:44:20;25.63;;;13.40;;
7703;SDS011;3894;49.700;10.770;2023-10-19T08:46:46;25.98;;;12.70;;
7703;SDS011;3894;49.700;10.770;2023-10-19T08:49:16;28.15;;;15.70;;
7703;SDS011;3894;49.700;10.770;2023-10-19T08:54:14;25.58;;;13.40;;
7703;SDS011;3894;49.700;10.770;2023-10-19T08:56:40;31.17;;;15.63;;
7703;SDS011;3894;49.700;10.770;2023-10-19T08:59:07;25.65;;;13.45;;
7703;SDS011;3894;49.700;10.770;2023-10-19T09:01:33;27.17;;;13.38;;
7703;SDS011;3894;49.700;10.770;2023-10-19T09:04:00;26.30;;;13.48;;
7703;SDS011;3894;49.700;10.770;2023-10-19T09:06:26;24.85;;;13.02;;
7703;SDS011;3894;49.700;10.770;2023-10-19T09:08:56;24.35;;;12.93;;
7703;SDS011;3894;49.700;10.770;2023-10-19T09:11:23;24.25;;;15.32;;
7703;SDS011;3894;49.700;10.770;2023-10-19T09:13:50;26.00;;;12.15;;
7703;SDS011;3894;49.700;10.770;2023-10-19T09:16:17;25.33;;;12.50;;
7703;SDS011;3894;49.700;10.770;2023-10-19T09:18:45;27.40;;;13.15;;
7703;SDS011;3894;49.700;10.770;2023-10-19T09:21:15;27.17;;;12.95;;
7703;SDS011;3894;49.700;10.770;2023-10-19T09:23:51;24.70;;;12.68;;
7703;SDS011;3894;49.700;10.770;2023-10-19T09:26:17;24.85;;;12.77;;
7703;SDS011;3894;49.700;10.770;2023-10-19T09:28:45;23.67;;;12.23;;
7703;SDS011;3894;49.700;10.770;2023-10-19T09:31:13;24.00;;;12.13;;
7703;SDS011;3894;49.700;10.770;2023-10-19T09:33:41;27.13;;;11.70;;
7703;SDS011;3894;49.700;10.770;2023-10-19T09:36:09;23.92;;;12.63;;
7703;SDS011;3894;49.700;10.770;2023-10-19T09:38:39;24.30;;;12.10;;
7703;SDS011;3894;49.700;10.770;2023-10-19T09:41:18;26.92;;;12.60;;
7703;SDS011;3894;49.700;10.770;2023-10-19T09:43:48;23.92;;;12.73;;
7703;SDS011;3894;49.700;10.770;2023-10-19T09:46:21;23.45;;;11.65;;
7703;SDS011;3894;49.700;10.770;2023-10-19T09:48:56;24.60;;;13.52;;
7703;SDS011;3894;49.700;10.770;2023-10-19T09:51:22;26.60;;;11.77;;
7703;SDS011;3894;49.700;10.770;2023-10-19T09:53:51;24.42;;;12.18;;
7703;SDS011;3894;49.700;10.770;2023-10-19T09:56:33;22.35;;;11.05;;
7703;SDS011;3894;49.700;10.770;2023-10-19T09:59:05;22.52;;;11.57;;
7703;SDS011;3894;49.700;10.770;2023-10-19T10:04:40;23.20;;;11.20;;
7703;SDS011;3894;49.700;10.770;2023-10-19T10:07:08;21.85;;;10.55;;
7703;SDS011;3894;49.700;10.770;2023-10-19T10:09:43;22.50;;;11.90;;
7703;SDS011;3894;49.700;10.770;2023-10-19T10:14:52;20.92;;;10.98;;
7703;SDS011;3894;49.700;10.770;2023-10-19T10:17:28;22.88;;;11.63;;
7703;SDS011;3894;49.700;10.770;2023-10-19T10:23:15;22.92;;;12.18;;
7703;SDS011;3894;49.700;10.770;2023-10-19T10:25:41;19.13;;;10.63;;
7703;SDS011;3894;49.700;10.770;2023-10-19T10:28:13;21.38;;;11.63;;
7703;SDS011;3894;49.700;10.770;2023-10-19T10:33:44;19.25;;;10.15;;
7703;SDS011;3894;49.700;10.770;2023-10-19T10:36:12;21.33;;;10.95;;
7703;SDS011;3894;49.700;10.770;2023-10-19T10:38:39;20.88;;;11.65;;
7703;SDS011;3894;49.700;10.770;2023-10-19T10:41:05;18.10;;;10.27;;
7703;SDS011;3894;49.700;10.770;2023-10-19T10:43:47;21.65;;;10.93;;
7703;SDS011;3894;49.700;10.770;2023-10-19T10:46:14;21.05;;;10.25;;
7703;SDS011;3894;49.700;10.770;2023-10-19T10:48:40;18.00;;;9.07;;
7703;SDS011;3894;49.700;10.770;2023-10-19T10:51:16;18.30;;;10.95;;
7703;SDS011;3894;49.700;10.770;2023-10-19T10:56:13;17.95;;;8.52;;
7703;SDS011;3894;49.700;10.770;2023-10-19T10:58:38;18.70;;;9.88;;
7703;SDS011;3894;49.700;10.770;2023-10-19T11:01:05;18.92;;;9.50;;
7703;SDS011;3894;49.700;10.770;2023-10-19T11:03:31;18.52;;;10.48;;
7703;SDS011;3894;49.700;10.770;2023-10-19T11:06:04;19.02;;;10.25;;
7703;SDS011;3894;49.700;10.770;2023-10-19T11:08:33;19.48;;;11.85;;
7703;SDS011;3894;49.700;10.770;2023-10-19T11:11:04;19.88;;;10.60;;
7703;SDS011;3894;49.700;10.770;2023-10-19T11:13:32;20.60;;;12.15;;
7703;SDS011;3894;49.700;10.770;2023-10-19T11:15:58;21.20;;;11.18;;
7703;SDS011;3894;49.700;10.770;2023-10-19T11:20:56;19.00;;;10.13;;
7703;SDS011;3894;49.700;10.770;2023-10-19T11:23:34;20.05;;;10.05;;
7703;SDS011;3894;49.700;10.770;2023-10-19T11:26:07;18.90;;;9.93;;
7703;SDS011;3894;49.700;10.770;2023-10-19T11:28:35;18.85;;;10.18;;
7703;SDS011;3894;49.700;10.770;2023-10-19T11:31:10;19.92;;;11.20;;
7703;SDS011;3894;49.700;10.770;2023-10-19T11:33:37;19.88;;;10.40;;
7703;SDS011;3894;49.700;10.770;2023-10-19T11:36:03;18.50;;;9.98;;
7703;SDS011;3894;49.700;10.770;2023-10-19T11:38:29;16.83;;;10.45;;
7703;SDS011;3894;49.700;10.770;2023-10-19T11:40:55;20.20;;;10.63;;
7703;SDS011;3894;49.700;10.770;2023-10-19T11:43:21;24.73;;;11.30;;
7703;SDS011;3894;49.700;10.770;2023-10-19T11:45:46;19.02;;;10.15;;
7703;SDS011;3894;49.700;10.770;2023-10-19T11:48:12;18.17;;;9.90;;
7703;SDS011;3894;49.700;10.770;2023-10-19T11:50:37;20.20;;;11.40;;
7703;SDS011;3894;49.700;10.770;2023-10-19T11:53:04;17.55;;;10.10;;
7703;SDS011;3894;49.700;10.770;2023-10-19T11:55:31;18.15;;;10.43;;
7703;SDS011;3894;49.700;10.770;2023-10-19T11:57:56;18.52;;;9.82;;
7703;SDS011;3894;49.700;10.770;2023-10-19T12:00:22;19.30;;;10.23;;
7703;SDS011;3894;49.700;10.770;2023-10-19T12:05:16;18.88;;;10.02;;
7703;SDS011;3894;49.700;10.770;2023-10-19T12:07:42;18.05;;;8.70;;
7703;SDS011;3894;49.700;10.770;2023-10-19T12:10:10;18.17;;;9.85;;
7703;SDS011;3894;49.700;10.770;2023-10-19T12:12:37;18.33;;;9.15;;
7703;SDS011;3894;49.700;10.770;2023-10-19T12:15:03;17.13;;;8.70;;
7703;SDS011;3894;49.700;10.770;2023-10-19T12:17:30;15.07;;;8.20;;
7703;SDS011;3894;49.700;10.770;2023-10-19T12:19:59;18.00;;;9.27;;
7703;SDS011;3894;49.700;10.770;2023-10-19T12:22:25;17.77;;;9.55;;
7703;SDS011;3894;49.700;10.770;2023-10-19T12:24:56;17.00;;;9.98;;
7703;SDS011;3894;49.700;10.770;2023-10-19T12:27:23;16.10;;;9.48;;
7703;SDS011;3894;49.700;10.770;2023-10-19T12:29:49;17.85;;;9.95;;
7703;SDS011;3894;49.700;10.770;2023-10-19T12:34:43;16.65;;;9.27;;
7703;SDS011;3894;49.700;10.770;2023-10-19T12:37:09;17.35;;;10.52;;
7703;SDS011;3894;49.700;10.770;2023-10-19T12:39:37;16.67;;;9.80;;
7703;SDS011;3894;49.700;10.770;2023-10-19T12:42:09;17.48;;;9.38;;
7703;SDS011;3894;49.700;10.770;2023-10-19T12:44:35;19.77;;;9.77;;
7703;SDS011;3894;49.700;10.770;2023-10-19T12:47:04;17.20;;;8.88;;
7703;SDS011;3894;49.700;10.770;2023-10-19T12:49:34;17.85;;;10.07;;
7703;SDS011;3894;49.700;10.770;2023-10-19T12:52:00;20.63;;;9.90;;
7703;SDS011;3894;49.700;10.770;2023-10-19T12:54:28;18.67;;;9.80;;
7703;SDS011;3894;49.700;10.770;2023-10-19T12:56:54;20.27;;;9.38;;
7703;SDS011;3894;49.700;10.770;2023-10-19T12:59:20;21.25;;;9.30;;
7703;SDS011;3894;49.700;10.770;2023-10-19T13:04:14;17.77;;;9.82;;
7703;SDS011;3894;49.700;10.770;2023-10-19T13:06:43;19.13;;;10.52;;
7703;SDS011;3894;49.700;10.770;2023-10-19T13:09:12;19.77;;;9.35;;
7703;SDS011;3894;49.700;10.770;2023-10-19T13:11:40;18.23;;;10.20;;
7703;SDS011;3894;49.700;10.770;2023-10-19T13:14:09;22.15;;;10.00;;
7703;SDS011;3894;49.700;10.770;2023-10-19T13:16:35;19.83;;;9.32;;
7703;SDS011;3894;49.700;10.770;2023-10-19T13:19:00;19.58;;;11.48;;
7703;SDS011;3894;49.700;10.770;2023-10-19T13:21:34;16.58;;;9.10;;
7703;SDS011;3894;49.700;10.770;2023-10-19T13:24:00;19.02;;;9.63;;
7703;SDS011;3894;49.700;10.770;2023-10-19T13:26:27;17.63;;;9.50;;
7703;SDS011;3894;49.700;10.770;2023-10-19T13:28:53;17.95;;;9.57;;
7703;SDS011;3894;49.700;10.770;2023-10-19T13:33:47;18.23;;;9.70;;
7703;SDS011;3894;49.700;10.770;2023-10-19T13:36:12;17.23;;;9.82;;
7703;SDS011;3894;49.700;10.770;2023-10-19T13:38:38;17.80;;;9.55;;
7703;SDS011;3894;49.700;10.770;2023-10-19T13:41:04;18.55;;;10.35;;
7703;SDS011;3894;49.700;10.770;2023-10-19T13:43:35;16.77;;;9.15;;
7703;SDS011;3894;49.700;10.770;2023-10-19T13:46:01;19.25;;;9.38;;
7703;SDS011;3894;49.700;10.770;2023-10-19T13:48:26;17.75;;;8.32;;
7703;SDS011;3894;49.700;10.770;2023-10-19T13:50:52;17.33;;;8.55;;
7703;SDS011;3894;49.700;10.770;2023-10-19T13:53:25;14.52;;;7.70;;
7703;SDS011;3894;49.700;10.770;2023-10-19T13:55:51;13.52;;;7.10;;
7703;SDS011;3894;49.700;10.770;2023-10-19T13:58:17;15.88;;;8.65;;
7703;SDS011;3894;49.700;10.770;2023-10-19T14:00:43;18.20;;;9.32;;
7703;SDS011;3894;49.700;10.770;2023-10-19T14:03:10;17.67;;;8.90;;
7703;SDS011;3894;49.700;10.770;2023-10-19T14:05:45;17.98;;;10.30;;
7703;SDS011;3894;49.700;10.770;2023-10-19T14:08:18;15.73;;;10.60;;
7703;SDS011;3894;49.700;10.770;2023-10-19T14:10:45;17.02;;;7.78;;
7703;SDS011;3894;49.700;10.770;2023-10-19T14:13:11;16.58;;;8.68;;
7703;SDS011;3894;49.700;10.770;2023-10-19T14:15:37;15.55;;;8.77;;
7703;SDS011;3894;49.700;10.770;2023-10-19T14:18:04;18.73;;;9.90;;
7703;SDS011;3894;49.700;10.770;2023-10-19T14:20:30;17.40;;;10.20;;
7703;SDS011;3894;49.700;10.770;2023-10-19T14:22:57;21.73;;;12.68;;
7703;SDS011;3894;49.700;10.770;2023-10-19T14:25:23;16.63;;;9.38;;
7703;SDS011;3894;49.700;10.770;2023-10-19T14:27:49;17.95;;;9.88;;
7703;SDS011;3894;49.700;10.770;2023-10-19T14:30:17;20.45;;;11.10;;
7703;SDS011;3894;49.700;10.770;2023-10-19T14:32:47;24.60;;;12.75;;
7703;SDS011;3894;49.700;10.770;2023-10-19T14:35:14;24.58;;;13.52;;
7703;SDS011;3894;49.700;10.770;2023-10-19T14:37:44;25.70;;;11.98;;
7703;SDS011;3894;49.700;10.770;2023-10-19T14:40:12;24.58;;;13.10;;
7703;SDS011;3894;49.700;10.770;2023-10-19T14:42:43;19.88;;;11.07;;
7703;SDS011;3894;49.700;10.770;2023-10-19T14:45:09;19.70;;;12.02;;
7703;SDS011;3894;49.700;10.770;2023-10-19T14:47:39;21.92;;;11.80;;
7703;SDS011;3894;49.700;10.770;2023-10-19T14:50:15;23.38;;;10.82;;
7703;SDS011;3894;49.700;10.770;2023-10-19T14:52:45;18.27;;;9.73;;
7703;SDS011;3894;49.700;10.770;2023-10-19T14:57:40;18.20;;;10.02;;
7703;SDS011;3894;49.700;10.770;2023-10-19T15:00:07;16.95;;;9.77;;
7703;SDS011;3894;49.700;10.770;2023-10-19T15:02:46;16.88;;;9.38;;
7703;SDS011;3894;49.700;10.770;2023-10-19T15:07:44;18.30;;;9.15;;
7703;SDS011;3894;49.700;10.770;2023-10-19T15:10:17;18.85;;;9.73;;
7703;SDS011;3894;49.700;10.770;2023-10-19T15:12:43;17.15;;;9.30;;
7703;SDS011;3894;49.700;10.770;2023-10-19T15:15:09;20.08;;;10.43;;
7703;SDS011;3894;49.700;10.770;2023-10-19T15:17:38;16.05;;;9.05;;
7703;SDS011;3894;49.700;10.770;2023-10-19T15:20:05;16.77;;;9.75;;
7703;SDS011;3894;49.700;10.770;2023-10-19T15:22:31;19.70;;;9.25;;
7703;SDS011;3894;49.700;10.770;2023-10-19T15:24:57;17.25;;;9.10;;
7703;SDS011;3894;49.700;10.770;2023-10-19T15:27:26;18.75;;;9.38;;
7703;SDS011;3894;49.700;10.770;2023-10-19T15:29:54;18.90;;;10.75;;
7703;SDS011;3894;49.700;10.770;2023-10-19T15:32:20;22.67;;;11.50;;